createdAt,value
2023-10-27T00:01:49.262Z,3.65
2023-10-27T00:06:54.186Z,3.70
2023-10-27T00:11:56.043Z,3.67
2023-10-27T00:16:58.617Z,2.55
2023-10-27T00:22:00.305Z,3.88
2023-10-27T00:27:02.062Z,2.47
2023-10-27T00:32:04.160Z,2.88
2023-10-27T00:37:05.921Z,2.45
2023-10-27T00:42:08.071Z,2.47
2023-10-27T00:47:10.069Z,2.05
2023-10-27T00:52:14.137Z,2.58
2023-10-27T00:57:16.139Z,2.25
2023-10-27T01:02:23.872Z,3.08
2023-10-27T01:07:25.734Z,3.55
2023-10-27T01:12:27.409Z,3.65
2023-10-27T01:17:29.154Z,2.92
2023-10-27T01:22:35.091Z,3.33
2023-10-27T01:27:36.898Z,3.42
2023-10-27T01:32:39.300Z,3.30
2023-10-27T01:37:41.146Z,3.95
2023-10-27T01:42:42.993Z,2.92
2023-10-27T01:47:44.824Z,2.40
2023-10-27T01:52:46.975Z,2.10
2023-10-27T01:57:48.701Z,2.47
2023-10-27T02:02:53.502Z,2.28
2023-10-27T02:07:56.422Z,2.72
2023-10-27T02:12:58.132Z,2.20
2023-10-27T02:17:59.891Z,3.58
2023-10-27T02:23:01.746Z,2.83
2023-10-27T02:28:03.619Z,2.55
2023-10-27T02:33:05.419Z,2.60
2023-10-27T02:38:07.237Z,2.95
2023-10-27T02:43:10.205Z,2.67
2023-10-27T02:48:12.593Z,1.90
2023-10-27T02:53:17.237Z,1.80
2023-10-27T02:58:19.084Z,2.28
2023-10-27T03:03:20.953Z,2.20
2023-10-27T03:08:22.730Z,2.47
2023-10-27T03:13:24.475Z,3.25
2023-10-27T03:18:26.513Z,2.50
2023-10-27T03:23:28.677Z,2.30
2023-10-27T03:28:31.386Z,2.38
2023-10-27T03:33:34.605Z,3.22
2023-10-27T03:38:36.360Z,2.20
2023-10-27T03:43:38.084Z,2.05
2023-10-27T03:48:40.408Z,2.45
2023-10-27T03:53:42.260Z,2.03
2023-10-27T03:58:48.006Z,2.58
2023-10-27T04:03:50.338Z,2.45
2023-10-27T04:08:52.035Z,2.03
2023-10-27T04:13:53.662Z,2.30
2023-10-27T04:18:55.384Z,2.47
2023-10-27T04:23:57.594Z,2.60
2023-10-27T04:28:59.248Z,3.47
2023-10-27T04:34:01.422Z,3.58
2023-10-27T04:39:05.170Z,2.92
2023-10-27T04:44:07.144Z,2.40
2023-10-27T04:49:08.908Z,3.88
2023-10-27T04:54:10.609Z,2.63
2023-10-27T04:59:12.256Z,2.33
2023-10-27T05:04:14.092Z,3.80
2023-10-27T05:09:17.064Z,2.60
2023-10-27T05:14:20.245Z,2.45
2023-10-27T05:19:22.582Z,3.33
2023-10-27T05:24:30.611Z,3.05
2023-10-27T05:29:33.789Z,4.50
2023-10-27T05:34:35.610Z,3.38
2023-10-27T05:39:37.313Z,3.88
2023-10-27T05:44:41.303Z,3.38
2023-10-27T05:49:43.073Z,2.97
2023-10-27T05:54:46.515Z,3.78
2023-10-27T05:59:49.895Z,3.97
2023-10-27T06:04:52.261Z,3.47
2023-10-27T06:09:54.126Z,2.80
2023-10-27T06:14:55.813Z,3.38
2023-10-27T06:20:09.283Z,4.07
2023-10-27T06:25:15.502Z,4.38
2023-10-27T06:30:18.103Z,5.10
2023-10-27T06:35:19.933Z,3.33
2023-10-27T06:40:22.917Z,3.78
2023-10-27T06:45:24.755Z,5.32
2023-10-27T06:50:26.424Z,4.60
2023-10-27T06:55:28.223Z,4.60
2023-10-27T07:00:29.940Z,5.88
2023-10-27T07:05:31.616Z,6.30
2023-10-27T07:10:33.518Z,5.40
2023-10-27T07:15:35.260Z,5.30
2023-10-27T07:20:40.721Z,5.00
2023-10-27T07:25:42.580Z,5.70
2023-10-27T07:30:44.313Z,5.57
2023-10-27T07:35:47.656Z,5.80
2023-10-27T07:40:49.480Z,5.55
2023-10-27T07:45:51.205Z,5.50
2023-10-27T07:50:58.043Z,4.40
2023-10-27T07:55:59.845Z,6.13
2023-10-27T08:01:01.573Z,7.53
2023-10-27T08:06:08.672Z,5.70
2023-10-27T08:11:18.824Z,5.68
2023-10-27T08:16:20.559Z,6.75
2023-10-27T08:21:23.007Z,7.57
2023-10-27T08:26:24.762Z,7.15
2023-10-27T08:31:26.504Z,9.30
2023-10-27T08:36:28.531Z,7.07
2023-10-27T08:41:30.349Z,7.35
2023-10-27T08:46:33.490Z,7.53
2023-10-27T08:51:36.988Z,8.10
2023-10-27T08:56:38.679Z,9.25
2023-10-27T09:01:40.355Z,11.38
2023-10-27T09:06:43.072Z,11.02
2023-10-27T09:11:49.436Z,9.00
2023-10-27T09:16:52.260Z,10.65
2023-10-27T09:21:54.761Z,9.80
2023-10-27T09:27:00.784Z,11.48
2023-10-27T09:37:04.126Z,11.18
2023-10-27T09:42:07.749Z,11.07
2023-10-27T09:47:29.722Z,11.50
2023-10-27T09:52:33.005Z,9.85
2023-10-27T09:57:35.608Z,8.95
2023-10-27T10:02:38.181Z,9.65
2023-10-27T10:07:53.818Z,10.35
2023-10-27T10:13:02.840Z,9.68
2023-10-27T10:18:09.542Z,9.15
2023-10-27T10:23:11.942Z,11.25
2023-10-27T10:28:17.783Z,9.85
2023-10-27T10:38:26.555Z,8.60
2023-10-27T10:43:42.300Z,10.88
2023-10-27T10:48:46.112Z,10.10
2023-10-27T10:53:55.392Z,9.32
2023-10-27T10:58:57.639Z,7.60
2023-10-27T11:03:59.576Z,12.13
2023-10-27T11:09:01.340Z,9.27
2023-10-27T11:14:04.366Z,7.55
2023-10-27T11:19:15.789Z,7.57
2023-10-27T11:24:17.529Z,5.00
2023-10-27T11:29:19.247Z,1.63
2023-10-27T11:34:27.631Z,1.35
2023-10-27T11:39:29.715Z,1.55
2023-10-27T11:44:32.853Z,1.00
2023-10-27T11:49:34.843Z,0.93
2023-10-27T11:54:37.131Z,0.80
2023-10-27T11:59:38.864Z,0.60
2023-10-27T12:04:40.658Z,6.72
2023-10-27T12:09:42.416Z,0.40
2023-10-27T12:14:44.247Z,0.50
2023-10-27T12:19:46.270Z,0.60
2023-10-27T12:24:48.134Z,0.57
2023-10-27T12:29:50.050Z,0.40
2023-10-27T12:34:51.762Z,0.52
2023-10-27T12:39:54.603Z,1.05
2023-10-27T12:44:58.727Z,0.63
2023-10-27T12:50:01.150Z,0.82
2023-10-27T12:55:03.036Z,3.28
2023-10-27T13:00:21.907Z,3.67
2023-10-27T13:05:24.969Z,3.88
2023-10-27T13:10:26.745Z,4.35
2023-10-27T13:15:29.482Z,3.22
2023-10-27T13:20:34.766Z,2.75
2023-10-27T13:25:36.530Z,3.05
2023-10-27T13:30:38.478Z,3.97
2023-10-27T13:35:40.232Z,4.30
2023-10-27T13:40:41.934Z,3.90
2023-10-27T13:45:43.712Z,5.43
2023-10-27T13:50:45.391Z,3.72
2023-10-27T13:55:49.952Z,4.20
2023-10-27T14:00:52.120Z,4.20
2023-10-27T14:05:53.878Z,4.57
2023-10-27T14:10:55.617Z,5.78
2023-10-27T14:15:57.412Z,4.88
2023-10-27T14:21:00.538Z,4.97
2023-10-27T14:26:02.512Z,4.47
2023-10-27T14:31:07.766Z,4.82
2023-10-27T14:36:10.481Z,7.32
2023-10-27T14:41:12.436Z,5.97
2023-10-27T14:46:16.232Z,6.97
2023-10-27T14:51:20.378Z,6.45
2023-10-27T14:56:22.148Z,4.05
2023-10-27T15:01:26.228Z,10.52
2023-10-27T15:06:28.080Z,6.10
2023-10-27T15:11:29.770Z,5.85
2023-10-27T15:16:34.122Z,5.78
2023-10-27T15:21:36.025Z,7.05
2023-10-27T15:26:38.096Z,5.88
2023-10-27T15:31:40.244Z,8.73
2023-10-27T15:36:42.047Z,6.65
2023-10-27T15:41:43.813Z,6.50
2023-10-27T15:46:46.994Z,8.30
2023-10-27T15:51:49.694Z,9.13
2023-10-27T15:56:52.011Z,9.25
2023-10-27T16:01:53.789Z,10.38
2023-10-27T16:06:59.213Z,8.13
2023-10-27T16:12:01.606Z,9.52
2023-10-27T16:17:03.574Z,8.68
2023-10-27T16:22:05.375Z,9.02
2023-10-27T16:27:09.170Z,12.60
2023-10-27T16:32:10.833Z,10.35
2023-10-27T16:37:14.127Z,11.20
2023-10-27T16:42:18.240Z,9.43
2023-10-27T16:47:19.889Z,8.57
2023-10-27T16:52:21.615Z,8.30
2023-10-27T16:57:23.784Z,10.48
2023-10-27T17:02:26.739Z,8.07
2023-10-27T17:07:28.459Z,9.40
2023-10-27T17:12:30.775Z,10.07
2023-10-27T17:17:32.552Z,10.57
2023-10-27T17:22:34.248Z,10.63
2023-10-27T17:27:35.949Z,11.02
2023-10-27T17:32:39.827Z,9.90
2023-10-27T17:37:41.720Z,12.75
2023-10-27T17:42:43.431Z,10.60
2023-10-27T17:47:49.638Z,13.45
2023-10-27T17:52:51.523Z,11.35
2023-10-27T17:57:53.916Z,15.02
2023-10-27T18:02:55.632Z,14.77
2023-10-27T18:07:58.711Z,13.68
2023-10-27T18:13:00.934Z,15.07
2023-10-27T18:18:04.150Z,12.05
2023-10-27T18:23:06.736Z,13.02
2023-10-27T18:28:08.383Z,14.85
2023-10-27T18:33:10.176Z,15.63
2023-10-27T18:38:14.134Z,14.80
2023-10-27T18:43:15.796Z,16.60
2023-10-27T18:48:17.518Z,13.60
2023-10-27T18:53:19.202Z,15.48
2023-10-27T18:58:21.682Z,12.95
2023-10-27T19:03:30.754Z,17.67
2023-10-27T19:08:33.668Z,15.73
2023-10-27T19:13:36.553Z,13.07
2023-10-27T19:18:40.194Z,13.52
2023-10-27T19:23:47.303Z,12.98
2023-10-27T19:28:51.227Z,10.55
2023-10-27T19:33:53.440Z,9.55
2023-10-27T19:38:55.941Z,7.85
2023-10-27T19:43:57.799Z,9.80
2023-10-27T19:49:00.668Z,9.13
2023-10-27T19:54:02.403Z,8.70
2023-10-27T19:59:04.310Z,8.32
2023-10-27T20:04:08.045Z,8.85
2023-10-27T20:09:12.828Z,10.90
2023-10-27T20:14:14.603Z,12.10
2023-10-27T20:19:16.319Z,12.18
2023-10-27T20:24:21.175Z,13.60
2023-10-27T20:29:23.423Z,13.43
2023-10-27T20:34:26.012Z,15.45
2023-10-27T20:39:29.317Z,15.55
2023-10-27T20:44:31.055Z,13.00
2023-10-27T20:49:32.895Z,15.43
2023-10-27T20:54:34.614Z,14.85
2023-10-27T20:59:36.328Z,13.75
2023-10-27T21:04:38.102Z,13.63
2023-10-27T21:09:40.903Z,14.35
2023-10-27T21:14:42.606Z,13.32
2023-10-27T21:19:45.206Z,13.18
2023-10-27T21:24:47.373Z,16.38
2023-10-27T21:29:55.575Z,17.75
2023-10-27T21:34:57.324Z,17.35
2023-10-27T21:39:59.148Z,12.48
2023-10-27T21:45:00.814Z,13.73
2023-10-27T21:50:02.535Z,10.63
2023-10-27T21:55:04.796Z,9.63
2023-10-27T22:00:29.752Z,12.25
2023-10-27T22:10:33.742Z,10.57
2023-10-27T22:15:36.051Z,11.23
2023-10-27T22:20:37.813Z,8.30
2023-10-27T22:25:44.630Z,8.25
2023-10-27T22:30:46.600Z,7.90
2023-10-27T22:35:48.298Z,5.25
2023-10-27T22:40:51.300Z,4.22
2023-10-27T22:45:54.520Z,3.55
2023-10-27T22:50:56.486Z,2.63
2023-10-27T22:55:58.252Z,1.40
2023-10-27T23:01:00.811Z,0.82
2023-10-27T23:06:07.597Z,0.82
2023-10-27T23:11:10.950Z,2.03
2023-10-27T23:16:13.662Z,5.70
2023-10-27T23:21:15.749Z,6.03
2023-10-27T23:26:17.453Z,7.40
2023-10-27T23:31:19.686Z,3.88
2023-10-27T23:36:21.658Z,2.92
2023-10-27T23:41:24.529Z,2.47
2023-10-27T23:46:26.258Z,2.28
2023-10-27T23:51:28.760Z,1.67
2023-10-27T23:56:30.719Z,0.90
